createdAt,value
2023-01-13T00:00:47.217Z,0.90
2023-01-13T00:03:13.448Z,1.10
2023-01-13T00:05:39.728Z,1.20
2023-01-13T00:08:06.036Z,0.80
2023-01-13T00:10:32.660Z,1.07
2023-01-13T00:12:59.437Z,0.97
2023-01-13T00:15:25.653Z,0.70
2023-01-13T00:17:51.867Z,0.67
2023-01-13T00:20:18.236Z,0.43
2023-01-13T00:22:44.798Z,0.50
2023-01-13T00:25:10.960Z,0.47
2023-01-13T00:27:37.134Z,0.60
2023-01-13T00:30:05.279Z,0.47
2023-01-13T00:32:31.487Z,0.63
2023-01-13T00:34:58.370Z,0.50
2023-01-13T00:37:24.722Z,0.50
2023-01-13T00:39:50.961Z,0.60
2023-01-13T00:42:35.616Z,0.70
2023-01-13T00:45:01.907Z,0.50
2023-01-13T00:47:28.772Z,0.60
2023-01-13T00:49:54.897Z,0.70
2023-01-13T00:52:21.085Z,0.57
2023-01-13T00:54:47.287Z,0.60
2023-01-13T00:57:14.565Z,0.60
2023-01-13T00:59:40.995Z,0.87
2023-01-13T01:02:07.467Z,0.60
2023-01-13T01:04:34.506Z,0.77
2023-01-13T01:07:00.687Z,0.67
2023-01-13T01:09:31.777Z,0.80
2023-01-13T01:11:58.235Z,0.63
2023-01-13T01:14:24.536Z,0.50
2023-01-13T01:16:50.741Z,0.70
2023-01-13T01:19:18.161Z,0.70
2023-01-13T01:21:45.221Z,0.90
2023-01-13T01:24:11.391Z,0.80
2023-01-13T01:26:37.723Z,0.50
2023-01-13T01:29:03.963Z,0.70
2023-01-13T01:31:32.091Z,1.67
2023-01-13T01:33:58.904Z,0.40
2023-01-13T01:36:25.994Z,1.03
2023-01-13T01:38:52.835Z,1.73
2023-01-13T01:41:23.224Z,1.03
2023-01-13T01:44:02.115Z,0.67
2023-01-13T01:46:30.623Z,1.13
2023-01-13T01:49:01.543Z,1.17
2023-01-13T01:51:30.359Z,0.90
2023-01-13T01:53:58.002Z,0.80
2023-01-13T01:56:24.281Z,1.20
2023-01-13T01:58:51.652Z,0.83
2023-01-13T02:01:17.960Z,1.00
2023-01-13T02:03:54.051Z,1.07
2023-01-13T02:06:20.176Z,1.00
2023-01-13T02:08:46.881Z,0.87
2023-01-13T02:11:42.843Z,1.10
2023-01-13T02:14:08.982Z,0.97
2023-01-13T02:16:36.218Z,0.97
2023-01-13T02:19:09.947Z,0.90
2023-01-13T02:21:58.637Z,0.80
2023-01-13T02:24:54.242Z,1.17
2023-01-13T02:27:52.618Z,0.93
2023-01-13T02:30:47.845Z,0.70
2023-01-13T02:33:24.607Z,0.90
2023-01-13T02:35:54.208Z,1.13
2023-01-13T02:38:24.001Z,0.93
2023-01-13T02:40:56.055Z,0.90
2023-01-13T02:43:45.758Z,0.90
2023-01-13T02:46:16.012Z,1.00
2023-01-13T02:48:43.084Z,0.73
2023-01-13T02:51:11.651Z,1.00
2023-01-13T02:53:41.359Z,1.10
2023-01-13T02:56:08.557Z,1.73
2023-01-13T02:58:36.007Z,1.23
2023-01-13T03:01:02.352Z,1.40
2023-01-13T03:03:29.221Z,1.10
2023-01-13T03:06:05.050Z,1.33
2023-01-13T03:08:38.741Z,1.20
2023-01-13T03:11:07.452Z,1.67
2023-01-13T03:13:50.872Z,1.40
2023-01-13T03:16:22.843Z,1.73
2023-01-13T03:18:54.320Z,1.20
2023-01-13T03:21:25.405Z,0.90
2023-01-13T03:23:54.167Z,1.10
2023-01-13T03:26:24.728Z,1.33
2023-01-13T03:28:55.795Z,1.30
2023-01-13T03:31:26.805Z,1.10
2023-01-13T03:33:56.581Z,0.90
2023-01-13T03:36:25.701Z,1.20
2023-01-13T03:38:54.555Z,0.93
2023-01-13T03:41:24.356Z,1.17
2023-01-13T03:44:12.308Z,0.90
2023-01-13T03:46:41.560Z,1.00
2023-01-13T03:49:09.407Z,1.60
2023-01-13T03:51:38.849Z,1.10
2023-01-13T03:54:08.460Z,1.73
2023-01-13T03:56:38.771Z,1.27
2023-01-13T03:59:07.259Z,1.20
2023-01-13T04:01:38.367Z,1.10
2023-01-13T04:04:06.827Z,1.60
2023-01-13T04:06:37.985Z,1.27
2023-01-13T04:09:11.346Z,2.20
2023-01-13T04:11:39.891Z,1.27
2023-01-13T04:14:08.087Z,1.37
2023-01-13T04:16:36.285Z,1.13
2023-01-13T04:19:03.777Z,1.03
2023-01-13T04:21:30.475Z,1.30
2023-01-13T04:23:57.342Z,1.33
2023-01-13T04:26:23.629Z,1.47
2023-01-13T04:28:51.106Z,1.07
2023-01-13T04:31:17.377Z,1.20
2023-01-13T04:33:43.574Z,1.33
2023-01-13T04:36:09.812Z,1.43
2023-01-13T04:38:35.971Z,1.40
2023-01-13T04:41:02.801Z,1.73
2023-01-13T04:43:29.082Z,1.63
2023-01-13T04:45:55.343Z,1.67
2023-01-13T04:48:21.607Z,1.60
2023-01-13T04:50:47.975Z,1.90
2023-01-13T04:53:21.473Z,1.77
2023-01-13T04:55:48.964Z,2.27
2023-01-13T04:58:16.018Z,2.23
2023-01-13T05:00:42.333Z,1.60
2023-01-13T05:03:08.564Z,2.67
2023-01-13T05:05:34.775Z,2.00
2023-01-13T05:08:01.057Z,2.03
2023-01-13T05:10:27.483Z,1.57
2023-01-13T05:13:12.072Z,2.50
2023-01-13T05:15:58.334Z,2.30
2023-01-13T05:18:25.044Z,2.07
2023-01-13T05:20:51.277Z,2.40
2023-01-13T05:23:35.958Z,2.20
2023-01-13T05:26:02.344Z,2.53
2023-01-13T05:28:31.659Z,2.53
2023-01-13T05:31:01.736Z,2.73
2023-01-13T05:33:28.423Z,2.17
2023-01-13T05:35:54.898Z,4.27
2023-01-13T05:38:21.031Z,2.80
2023-01-13T05:41:05.723Z,2.40
2023-01-13T05:43:32.473Z,2.23
2023-01-13T05:46:00.575Z,2.97
2023-01-13T05:48:28.981Z,2.87
2023-01-13T05:50:55.342Z,2.53
2023-01-13T05:53:22.116Z,2.87
2023-01-13T05:55:48.663Z,2.70
2023-01-13T05:58:16.250Z,3.70
2023-01-13T06:00:42.563Z,2.83
2023-01-13T06:03:10.405Z,2.70
2023-01-13T06:05:36.917Z,2.93
2023-01-13T06:08:05.028Z,3.10
2023-01-13T06:10:31.398Z,3.27
2023-01-13T06:12:57.589Z,2.40
2023-01-13T06:15:24.507Z,2.50
2023-01-13T06:17:50.714Z,2.20
2023-01-13T06:20:18.156Z,2.80
2023-01-13T06:22:46.759Z,2.20
2023-01-13T06:25:19.223Z,2.40
2023-01-13T06:27:45.618Z,2.10
2023-01-13T06:30:12.252Z,1.73
2023-01-13T06:32:41.506Z,1.90
2023-01-13T06:35:10.762Z,1.97
2023-01-13T06:37:37.990Z,2.07
2023-01-13T06:40:12.652Z,1.77
2023-01-13T06:42:57.483Z,2.00
2023-01-13T06:45:27.025Z,1.83
2023-01-13T06:48:02.276Z,1.80
2023-01-13T06:50:29.527Z,1.40
2023-01-13T06:52:56.379Z,1.87
2023-01-13T06:55:22.567Z,2.53
2023-01-13T06:57:50.075Z,1.80
2023-01-13T07:00:16.663Z,1.77
2023-01-13T07:02:42.973Z,1.90
2023-01-13T07:05:09.288Z,1.70
2023-01-13T07:07:35.515Z,1.63
2023-01-13T07:10:03.112Z,1.70
2023-01-13T07:12:29.347Z,1.80
2023-01-13T07:15:14.000Z,2.30
2023-01-13T07:17:40.163Z,1.77
2023-01-13T07:20:07.752Z,2.10
2023-01-13T07:22:33.982Z,1.77
2023-01-13T07:25:00.189Z,2.03
2023-01-13T07:27:27.011Z,1.60
2023-01-13T07:29:53.211Z,1.60
2023-01-13T07:32:19.343Z,1.83
2023-01-13T07:34:45.647Z,1.70
2023-01-13T07:37:11.796Z,1.63
2023-01-13T07:39:37.996Z,1.80
2023-01-13T07:42:22.330Z,1.50
2023-01-13T07:44:49.257Z,1.43
2023-01-13T07:47:15.429Z,1.30
2023-01-13T07:49:41.529Z,1.70
2023-01-13T07:52:08.308Z,1.57
2023-01-13T07:54:40.713Z,1.63
2023-01-13T07:57:07.900Z,1.37
2023-01-13T07:59:34.080Z,1.30
2023-01-13T08:02:01.234Z,1.57
2023-01-13T08:04:27.685Z,1.40
2023-01-13T08:06:54.027Z,2.13
2023-01-13T08:12:29.396Z,1.30
2023-01-13T08:14:55.532Z,1.50
2023-01-13T08:17:22.434Z,1.53
2023-01-13T08:19:48.616Z,4.07
2023-01-13T08:22:14.812Z,2.10
2023-01-13T08:24:41.059Z,2.20
2023-01-13T08:27:07.317Z,2.30
2023-01-13T08:29:33.505Z,1.90
2023-01-13T08:31:59.653Z,2.03
2023-01-13T08:34:26.465Z,1.70
2023-01-13T08:36:52.747Z,1.93
2023-01-13T08:39:18.947Z,1.60
2023-01-13T08:41:57.740Z,2.23
2023-01-13T08:44:25.615Z,2.63
2023-01-13T08:46:51.790Z,3.07
2023-01-13T08:49:18.015Z,2.60
2023-01-13T08:51:45.199Z,1.83
2023-01-13T08:54:11.870Z,2.40
2023-01-13T08:56:38.559Z,2.27
2023-01-13T08:59:05.280Z,2.00
2023-01-13T09:01:32.104Z,2.07
2023-01-13T09:03:58.489Z,1.97
2023-01-13T09:06:24.740Z,2.43
2023-01-13T09:08:51.578Z,2.43
2023-01-13T09:11:36.571Z,2.50
2023-01-13T09:14:03.531Z,2.07
2023-01-13T09:16:29.871Z,2.20
2023-01-13T09:18:56.098Z,3.33
2023-01-13T09:21:22.283Z,3.30
2023-01-13T09:23:48.525Z,3.20
2023-01-13T09:26:16.456Z,3.10
2023-01-13T09:28:42.756Z,2.93
2023-01-13T09:31:08.935Z,2.70
2023-01-13T09:33:53.564Z,2.40
2023-01-13T09:36:19.921Z,2.83
2023-01-13T09:38:46.144Z,2.33
2023-01-13T09:41:33.529Z,2.50
2023-01-13T09:44:01.102Z,2.47
2023-01-13T09:46:44.053Z,2.57
2023-01-13T09:49:15.967Z,2.77
2023-01-13T09:51:45.260Z,3.93
2023-01-13T09:54:15.900Z,2.90
2023-01-13T09:56:42.760Z,2.27
2023-01-13T09:59:11.025Z,2.97
2023-01-13T10:01:42.396Z,2.27
2023-01-13T10:04:10.399Z,2.77
2023-01-13T10:06:37.994Z,2.87
2023-01-13T10:09:04.846Z,2.83
2023-01-13T10:11:51.537Z,2.53
2023-01-13T10:14:19.781Z,3.00
2023-01-13T10:16:50.735Z,2.77
2023-01-13T10:19:18.944Z,3.33
2023-01-13T10:22:09.326Z,2.67
2023-01-13T10:24:49.278Z,2.47
2023-01-13T10:27:19.396Z,3.03
2023-01-13T10:29:46.300Z,2.13
2023-01-13T10:32:12.455Z,2.60
2023-01-13T10:34:46.144Z,3.10
2023-01-13T10:37:19.999Z,2.60
2023-01-13T10:39:47.625Z,2.60
2023-01-13T10:42:15.244Z,3.27
2023-01-13T10:44:48.282Z,2.93
2023-01-13T10:47:24.072Z,2.80
2023-01-13T10:50:01.888Z,3.20
2023-01-13T10:52:30.478Z,2.73
2023-01-13T10:54:56.683Z,2.90
2023-01-13T10:57:24.443Z,2.90
2023-01-13T10:59:52.318Z,2.53
2023-01-13T11:02:26.528Z,2.53
2023-01-13T11:05:10.415Z,2.83
2023-01-13T11:07:39.167Z,2.63
2023-01-13T11:10:18.802Z,2.83
2023-01-13T11:12:53.657Z,2.43
2023-01-13T11:15:23.812Z,2.47
2023-01-13T11:17:59.646Z,2.90
2023-01-13T11:20:31.766Z,3.17
2023-01-13T11:23:01.299Z,2.73
2023-01-13T11:25:31.960Z,2.20
2023-01-13T11:28:01.322Z,2.70
2023-01-13T11:30:32.925Z,2.63
2023-01-13T11:33:31.180Z,2.50
2023-01-13T11:36:04.873Z,2.53
2023-01-13T11:38:35.042Z,2.60
2023-01-13T11:41:07.950Z,3.27
2023-01-13T11:43:39.472Z,2.60
2023-01-13T11:46:08.882Z,2.77
2023-01-13T11:48:37.839Z,3.13
2023-01-13T11:51:11.124Z,2.80
2023-01-13T11:53:52.304Z,2.63
2023-01-13T11:56:38.160Z,2.67
2023-01-13T11:59:41.375Z,2.60
2023-01-13T12:02:17.680Z,2.70
2023-01-13T12:04:51.714Z,2.60
2023-01-13T12:07:23.047Z,2.33
2023-01-13T12:10:03.534Z,2.90
2023-01-13T12:12:42.451Z,3.17
2023-01-13T12:15:41.419Z,2.57
2023-01-13T12:18:20.727Z,2.87
2023-01-13T12:20:55.025Z,3.20
2023-01-13T12:23:24.657Z,2.40
2023-01-13T12:25:53.897Z,2.40
2023-01-13T12:28:24.283Z,3.20
2023-01-13T12:30:53.246Z,2.33
2023-01-13T12:33:32.779Z,2.67
2023-01-13T12:36:01.851Z,2.23
2023-01-13T12:38:35.079Z,3.10
2023-01-13T12:41:10.031Z,2.57
2023-01-13T12:43:55.605Z,2.20
2023-01-13T12:46:43.683Z,2.60
2023-01-13T12:49:19.711Z,2.63
2023-01-13T12:52:13.933Z,2.50
2023-01-13T12:55:16.957Z,2.40
2023-01-13T12:58:14.773Z,2.60
2023-01-13T13:01:11.396Z,2.57
2023-01-13T13:03:37.784Z,2.10
2023-01-13T13:06:17.637Z,2.03
2023-01-13T13:08:50.654Z,1.70
2023-01-13T13:12:10.235Z,2.20
2023-01-13T13:15:02.244Z,1.67
2023-01-13T13:17:58.277Z,2.03
2023-01-13T13:20:56.916Z,2.20
2023-01-13T13:23:40.402Z,2.83
2023-01-13T13:26:16.396Z,2.20
2023-01-13T13:28:48.595Z,2.23
2023-01-13T13:31:35.100Z,2.77
2023-01-13T13:34:12.824Z,2.63
2023-01-13T13:37:07.109Z,2.20
2023-01-13T13:39:52.604Z,2.50
2023-01-13T13:42:38.983Z,2.63
2023-01-13T13:45:32.881Z,2.60
2023-01-13T13:48:00.330Z,2.70
2023-01-13T13:50:31.203Z,2.37
2023-01-13T13:53:00.922Z,2.80
2023-01-13T13:55:28.674Z,2.80
2023-01-13T13:57:56.902Z,2.40
2023-01-13T14:00:25.656Z,3.47
2023-01-13T14:02:53.766Z,2.67
2023-01-13T14:05:21.996Z,2.83
2023-01-13T14:07:49.831Z,2.90
2023-01-13T14:10:19.371Z,2.47
2023-01-13T14:12:46.352Z,2.60
2023-01-13T14:15:32.063Z,2.30
2023-01-13T14:17:59.772Z,2.00
2023-01-13T14:20:30.592Z,2.63
2023-01-13T14:23:00.731Z,2.30
2023-01-13T14:25:32.951Z,2.20
2023-01-13T14:28:05.069Z,2.97
2023-01-13T14:30:32.621Z,2.37
2023-01-13T14:32:59.158Z,2.00
2023-01-13T14:35:25.333Z,3.33
2023-01-13T14:38:01.270Z,2.83
2023-01-13T14:40:45.751Z,2.30
2023-01-13T14:43:15.473Z,2.43
2023-01-13T14:45:54.661Z,2.53
2023-01-13T14:48:21.718Z,3.07
2023-01-13T14:50:48.024Z,3.07
2023-01-13T14:53:29.340Z,3.63
2023-01-13T14:55:55.831Z,3.07
2023-01-13T14:58:27.928Z,2.60
2023-01-13T15:01:28.212Z,2.90
2023-01-13T15:03:54.491Z,2.80
2023-01-13T15:06:22.661Z,3.30
2023-01-13T15:08:49.699Z,2.77
2023-01-13T15:11:24.838Z,3.00
2023-01-13T15:13:57.104Z,2.80
2023-01-13T15:16:25.476Z,3.27
2023-01-13T15:18:52.030Z,2.80
2023-01-13T15:21:18.790Z,2.90
2023-01-13T15:23:46.391Z,2.63
2023-01-13T15:26:20.396Z,3.00
2023-01-13T15:28:47.376Z,2.50
2023-01-13T15:31:14.464Z,2.87
2023-01-13T15:33:41.016Z,2.73
2023-01-13T15:36:19.081Z,3.27
2023-01-13T15:38:45.243Z,3.23
2023-01-13T15:41:13.012Z,3.10
2023-01-13T15:43:58.257Z,2.77
2023-01-13T15:46:40.218Z,3.03
2023-01-13T15:49:12.005Z,2.63
2023-01-13T15:51:39.313Z,2.73
2023-01-13T15:54:05.847Z,2.93
2023-01-13T15:56:35.294Z,2.90
2023-01-13T15:59:01.513Z,2.47
2023-01-13T16:01:28.287Z,3.63
2023-01-13T16:03:56.387Z,3.00
2023-01-13T16:06:27.886Z,3.53
2023-01-13T16:08:54.053Z,2.90
2023-01-13T16:11:20.326Z,2.90
2023-01-13T16:13:46.565Z,3.60
2023-01-13T16:16:18.178Z,3.60
2023-01-13T16:18:45.158Z,3.03
2023-01-13T16:21:12.120Z,3.30
2023-01-13T16:23:38.362Z,2.87
2023-01-13T16:26:05.360Z,3.00
2023-01-13T16:28:34.522Z,3.20
2023-01-13T16:31:15.327Z,2.90
2023-01-13T16:33:41.501Z,2.70
2023-01-13T16:36:12.476Z,2.97
2023-01-13T16:38:38.896Z,3.00
2023-01-13T16:41:06.266Z,2.73
2023-01-13T16:43:32.458Z,2.83
2023-01-13T16:45:58.757Z,2.80
2023-01-13T16:48:24.967Z,2.73
2023-01-13T16:50:51.165Z,2.10
2023-01-13T16:53:18.090Z,2.90
2023-01-13T16:55:44.302Z,2.47
2023-01-13T16:58:16.377Z,2.30
2023-01-13T17:00:42.670Z,2.53
2023-01-13T17:03:08.844Z,2.67
2023-01-13T17:05:38.630Z,2.50
2023-01-13T17:08:05.230Z,2.63
2023-01-13T17:10:32.390Z,3.00
2023-01-13T17:13:04.560Z,2.67
2023-01-13T17:15:39.892Z,3.00
2023-01-13T17:18:06.384Z,2.60
2023-01-13T17:20:32.684Z,2.53
2023-01-13T17:22:58.950Z,3.17
2023-01-13T17:25:25.520Z,3.10
2023-01-13T17:27:52.441Z,2.70
2023-01-13T17:30:20.059Z,3.20
2023-01-13T17:32:46.434Z,3.07
2023-01-13T17:35:14.888Z,3.00
2023-01-13T17:37:50.260Z,3.03
2023-01-13T17:40:16.936Z,3.33
2023-01-13T17:42:45.194Z,3.10
2023-01-13T17:45:12.431Z,4.00
2023-01-13T17:47:38.605Z,4.67
2023-01-13T17:50:05.627Z,3.40
2023-01-13T17:52:34.892Z,3.83
2023-01-13T17:55:03.799Z,4.23
2023-01-13T17:57:30.198Z,3.43
2023-01-13T17:59:57.550Z,3.57
2023-01-13T18:02:31.100Z,3.40
2023-01-13T18:04:57.279Z,2.90
2023-01-13T18:07:23.508Z,3.60
2023-01-13T18:09:49.651Z,3.80
2023-01-13T18:12:15.901Z,3.00
2023-01-13T18:14:42.084Z,3.50
2023-01-13T18:17:10.563Z,3.17
2023-01-13T18:19:55.838Z,2.47
2023-01-13T18:22:40.178Z,3.10
2023-01-13T18:25:29.529Z,2.70
2023-01-13T18:27:56.000Z,3.70
2023-01-13T18:30:22.309Z,2.97
2023-01-13T18:32:54.456Z,3.10
2023-01-13T18:35:21.247Z,3.30
2023-01-13T18:37:47.449Z,2.43
2023-01-13T18:40:13.930Z,3.10
2023-01-13T18:43:01.126Z,2.90
2023-01-13T18:45:28.940Z,3.00
2023-01-13T18:47:59.132Z,3.30
2023-01-13T18:50:27.281Z,3.30
2023-01-13T18:52:53.814Z,2.50
2023-01-13T18:55:20.849Z,2.50
2023-01-13T18:57:47.216Z,2.73
2023-01-13T19:00:20.035Z,2.70
2023-01-13T19:02:46.685Z,2.97
2023-01-13T19:05:12.950Z,2.70
2023-01-13T19:07:39.845Z,2.47
2023-01-13T19:10:08.970Z,3.27
2023-01-13T19:12:35.202Z,3.10
2023-01-13T19:15:01.960Z,3.00
2023-01-13T19:17:31.481Z,2.83
2023-01-13T19:20:02.591Z,2.70
2023-01-13T19:22:30.130Z,2.67
2023-01-13T19:24:59.156Z,3.73
2023-01-13T19:27:28.916Z,2.83
2023-01-13T19:29:57.819Z,2.80
2023-01-13T19:32:24.489Z,2.40
2023-01-13T19:34:51.216Z,2.90
2023-01-13T19:37:18.050Z,2.83
2023-01-13T19:39:44.354Z,2.90
2023-01-13T19:42:30.154Z,3.47
2023-01-13T19:45:14.670Z,3.20
2023-01-13T19:47:46.972Z,3.07
2023-01-13T19:50:13.558Z,2.87
2023-01-13T19:52:40.213Z,3.07
2023-01-13T19:55:07.073Z,2.93
2023-01-13T19:57:33.924Z,3.13
2023-01-13T20:00:00.110Z,2.67
2023-01-13T20:02:30.891Z,3.40
2023-01-13T20:04:58.431Z,3.67
2023-01-13T20:07:25.739Z,3.10
2023-01-13T20:09:52.173Z,3.00
2023-01-13T20:12:20.254Z,4.73
2023-01-13T20:14:47.515Z,3.73
2023-01-13T20:17:14.648Z,3.77
2023-01-13T20:19:40.967Z,4.20
2023-01-13T20:22:07.478Z,3.73
2023-01-13T20:24:33.877Z,3.90
2023-01-13T20:27:00.720Z,3.83
2023-01-13T20:29:31.468Z,3.07
2023-01-13T20:31:58.270Z,3.47
2023-01-13T20:34:24.659Z,4.13
2023-01-13T20:39:44.149Z,3.73
2023-01-13T20:42:28.355Z,3.30
2023-01-13T20:47:46.096Z,3.60
2023-01-13T20:50:12.471Z,3.73
2023-01-13T20:52:38.618Z,3.53
2023-01-13T20:55:05.913Z,3.43
2023-01-13T20:57:32.280Z,3.53
2023-01-13T20:59:58.398Z,4.37
2023-01-13T21:02:24.845Z,3.83
2023-01-13T21:04:51.720Z,3.80
2023-01-13T21:07:17.897Z,3.87
2023-01-13T21:09:43.996Z,3.77
2023-01-13T21:12:31.388Z,4.27
2023-01-13T21:15:15.740Z,3.60
2023-01-13T21:18:00.729Z,3.97
2023-01-13T21:20:29.740Z,4.27
2023-01-13T21:22:56.315Z,3.93
2023-01-13T21:25:22.617Z,3.10
2023-01-13T21:27:48.808Z,3.67
2023-01-13T21:30:16.840Z,4.23
2023-01-13T21:32:44.109Z,3.57
2023-01-13T21:35:10.833Z,3.40
2023-01-13T21:37:38.185Z,3.93
2023-01-13T21:40:06.917Z,3.10
2023-01-13T21:46:00.920Z,4.00
2023-01-13T21:48:27.127Z,3.10
2023-01-13T21:50:53.236Z,4.40
2023-01-13T21:53:20.037Z,4.17
2023-01-13T21:55:49.914Z,3.57
2023-01-13T21:58:16.105Z,4.20
2023-01-13T22:00:43.569Z,3.83
2023-01-13T22:03:10.956Z,4.17
2023-01-13T22:05:37.621Z,4.13
2023-01-13T22:08:04.457Z,3.60
2023-01-13T22:10:31.548Z,4.17
2023-01-13T22:12:59.012Z,4.17
2023-01-13T22:15:27.462Z,3.70
2023-01-13T22:17:55.151Z,3.63
2023-01-13T22:20:21.924Z,4.10
2023-01-13T22:22:48.267Z,4.20
2023-01-13T22:25:15.856Z,3.57
2023-01-13T22:27:44.004Z,3.87
2023-01-13T22:30:12.909Z,4.23
2023-01-13T22:32:39.158Z,3.93
2023-01-13T22:35:07.049Z,4.53
2023-01-13T22:37:33.426Z,3.97
2023-01-13T22:39:59.547Z,4.10
2023-01-13T22:42:25.706Z,4.17
2023-01-13T22:44:52.456Z,3.90
2023-01-13T22:47:18.620Z,4.53
2023-01-13T22:49:46.914Z,4.27
2023-01-13T22:52:13.432Z,5.00
2023-01-13T22:54:39.628Z,4.50
2023-01-13T22:57:05.845Z,3.90
2023-01-13T22:59:31.985Z,4.23
2023-01-13T23:01:58.759Z,4.57
2023-01-13T23:04:26.027Z,4.77
2023-01-13T23:06:52.211Z,4.37
2023-01-13T23:09:18.393Z,4.80
2023-01-13T23:11:46.278Z,3.63
2023-01-13T23:14:13.869Z,4.10
2023-01-13T23:16:40.549Z,3.87
2023-01-13T23:19:07.686Z,4.30
2023-01-13T23:21:35.590Z,3.97
2023-01-13T23:24:02.218Z,3.57
2023-01-13T23:26:29.479Z,3.67
2023-01-13T23:28:59.822Z,3.93
2023-01-13T23:31:26.065Z,5.23
2023-01-13T23:33:52.222Z,4.23
2023-01-13T23:36:20.635Z,4.33
2023-01-13T23:38:47.142Z,4.10
2023-01-13T23:41:15.004Z,4.53
2023-01-13T23:43:41.188Z,4.07
2023-01-13T23:46:09.983Z,4.10
2023-01-13T23:48:36.573Z,4.97
2023-01-13T23:51:05.083Z,3.90
2023-01-13T23:53:34.339Z,4.00
2023-01-13T23:56:01.258Z,4.47
2023-01-13T23:58:28.198Z,4.33
